Time;durP1;ratioP1;P1;durP2;ratioP2;P2;SDS_P1;SDS_P2;PMS_P1;PMS_P2;Temp;Humidity;BMP_temperature;BMP_pressure;BME280_temperature;BME280_humidity;BME280_pressure;Samples;Min_cycle;Max_cycle;Signal;HPM_P1;HPM_P2
2023/03/26 00:01:12;;;;;;;;;2.17;1.17;;;;;13.69;52.50;100662.19;2021379;28;2729440;-75
2023/03/26 00:02:28;;;;;;;;;0.67;0.67;;;;;13.68;52.50;100653.41;2045415;28;2729464;-75
2023/03/26 00:03:43;;;;;;;;;2.00;1.00;;;;;13.69;52.64;100652.47;2044263;28;2718096;-75
2023/03/26 00:04:57;;;;;;;;;1.00;1.00;;;;;13.67;52.59;100654.34;2044404;28;2731516;-75
2023/03/26 00:06:12;;;;;;;;;2.67;2.50;;;;;13.67;52.35;100653.47;2020835;28;2742989;-75
2023/03/26 00:07:26;;;;;;;;;1.83;1.83;;;;;13.65;52.72;100645.66;2021896;28;2729463;-75
2023/03/26 00:08:41;;;;;;;;;3.33;2.00;;;;;13.65;53.27;100637.72;2021581;28;2730465;-75
2023/03/26 00:09:56;;;;;;;;;1.50;1.50;;;;;13.64;53.61;100633.34;2020519;28;2726319;-75
2023/03/26 00:11:13;;;;;;;;;1.67;1.67;;;;;13.64;53.46;100628.06;2021414;28;2727364;-75
2023/03/26 00:12:26;;;;;;;;;2.50;1.50;;;;;13.62;53.62;100619.38;2021607;28;2731576;-75
2023/03/26 00:13:42;;;;;;;;;1.50;1.50;;;;;13.61;53.24;100622.94;2021686;28;2733599;-75
2023/03/26 00:14:53;;;;;;;;;15.67;13.00;;;;;13.61;53.67;100620.28;1991585;28;3520037;-75
2023/03/26 00:16:04;;;;;;;;;8.33;4.00;;;;;13.60;53.61;100619.44;2042472;28;2759664;-75
2023/03/26 00:17:14;;;;;;;;;14.00;12.00;;;;;13.59;54.00;100619.50;1992850;28;3516897;-75
2023/03/26 00:18:30;;;;;;;;;1.67;1.00;;;;;13.57;54.05;100616.09;2044024;28;2731516;-75
2023/03/26 00:19:44;;;;;;;;;6.33;4.83;;;;;13.56;53.91;100617.88;2020065;28;2746118;-75
2023/03/26 00:20:56;;;;;;;;;3.00;2.33;;;;;13.56;54.24;100609.06;1994141;28;2749226;-75
2023/03/26 00:22:09;;;;;;;;;7.00;4.00;;;;;13.56;53.81;100609.06;2016901;28;2749239;-75
2023/03/26 00:23:23;;;;;;;;;1.67;1.33;;;;;13.55;53.92;100607.34;2043356;28;2732634;-75
2023/03/26 00:24:38;;;;;;;;;1.67;1.67;;;;;13.54;54.39;100598.56;2044192;28;2736743;-75
2023/03/26 00:25:52;;;;;;;;;2.33;2.17;;;;;13.55;55.05;100600.31;2024336;28;2737770;-75
2023/03/26 00:27:07;;;;;;;;;2.50;2.00;;;;;13.55;55.25;100589.75;2016817;28;2745061;-75
2023/03/26 00:28:22;;;;;;;;;1.67;1.00;;;;;13.54;55.33;100587.16;2021988;28;2732600;-75
2023/03/26 00:29:35;;;;;;;;;1.00;1.00;;;;;13.54;55.47;100584.50;2046837;28;2727862;-75
2023/03/26 00:30:55;;;;;;;;;2.17;1.00;;;;;13.54;55.24;100580.09;2046013;28;2736712;-75
2023/03/26 00:32:09;;;;;;;;;5.00;2.00;;;;;13.54;55.58;100580.09;2045713;28;2730454;-75
2023/03/26 00:33:22;;;;;;;;;2.33;2.33;;;;;13.54;55.80;100587.16;2021003;28;2752341;-75
2023/03/26 00:34:33;;;;;;;;;2.67;2.33;;;;;13.54;55.66;100579.22;1994615;28;2750384;-75
2023/03/26 00:35:45;;;;;;;;;7.25;6.00;;;;;13.53;55.57;100581.00;2044309;28;2746153;-75
2023/03/26 00:37:02;;;;;;;;;2.33;2.00;;;;;13.52;56.06;100581.94;2045483;28;2741908;-75
2023/03/26 00:38:13;;;;;;;;;3.00;3.00;;;;;13.50;55.81;100579.41;1996222;28;2733984;-75
2023/03/26 00:39:28;;;;;;;;;0.50;0.50;;;;;13.49;55.17;100572.41;2046899;28;2725345;-75
2023/03/26 00:40:43;;;;;;;;;28.00;22.00;;;;;13.46;55.32;100569.91;2017577;28;2848182;-75
2023/03/26 00:41:56;;;;;;;;;6.00;2.00;;;;;13.45;55.86;100569.97;2020516;28;2732592;-76
2023/03/26 00:43:17;;;;;;;;;3.83;2.33;;;;;13.41;55.50;100569.25;2021449;28;2735685;-75
2023/03/26 00:44:31;;;;;;;;;1.67;1.67;;;;;13.39;56.00;100565.84;2021800;28;2750272;-75
2023/03/26 00:45:53;;;;;;;;;1.00;1.00;;;;;13.38;56.40;100566.78;2023212;28;2732601;-75
2023/03/26 00:47:06;;;;;;;;;2.67;1.00;;;;;13.38;56.31;100564.16;2045211;28;2733713;-75
2023/03/26 00:48:21;;;;;;;;;2.83;0.50;;;;;13.37;56.07;100551.88;2022699;28;2741951;-75
2023/03/26 00:49:32;;;;;;;;;5.33;2.67;;;;;13.37;56.30;100551.88;2019585;28;2747140;-75
2023/03/26 00:50:46;;;;;;;;;1.00;1.00;;;;;13.34;56.40;100541.44;2043755;28;2724260;-75
2023/03/26 00:51:56;;;;;;;;;79.50;57.50;;;;;13.34;56.36;100544.09;2015641;28;2886752;-75
2023/03/26 00:53:10;;;;;;;;;7.67;7.33;;;;;13.33;56.59;100537.09;2008288;28;2738832;-75
2023/03/26 00:54:24;;;;;;;;;4.33;4.00;;;;;13.30;56.90;100537.25;2042610;28;2754407;-75
2023/03/26 00:55:37;;;;;;;;;11.00;9.00;;;;;13.30;57.36;100529.31;2020637;28;2751767;-75
2023/03/26 00:56:54;;;;;;;;;1.00;1.00;;;;;13.28;57.28;100517.03;2019566;28;2729400;-75
2023/03/26 00:58:11;;;;;;;;;1.17;1.00;;;;;13.25;57.01;100511.94;2022719;28;2727341;-75
2023/03/26 00:59:29;;;;;;;;;1.00;1.00;;;;;13.25;57.15;100514.56;2023725;28;2725282;-75
2023/03/26 01:00:49;;;;;;;;;1.50;1.17;;;;;13.24;57.48;100523.41;2046071;28;2737753;-75
2023/03/26 01:02:03;;;;;;;;;1.00;1.00;;;;;13.22;57.52;100514.72;2023646;28;2725273;-75
2023/03/26 01:03:17;;;;;;;;;1.17;0.17;;;;;13.22;57.58;100512.06;2045813;28;2736759;-75
2023/03/26 01:04:33;;;;;;;;;1.67;0.33;;;;;13.21;57.64;100504.25;2045263;28;2738851;-76
2023/03/26 01:05:52;;;;;;;;;1.50;0.33;;;;;13.19;58.14;100504.28;2045394;28;2733649;-76
2023/03/26 01:07:12;;;;;;;;;2.50;0.67;;;;;13.20;58.20;100494.59;2040615;28;2729444;-75
2023/03/26 01:08:35;;;;;;;;;1.00;1.00;;;;;13.18;58.03;100497.31;2021898;28;2735141;-75
2023/03/26 01:09:50;;;;;;;;;1.67;1.00;;;;;13.15;58.31;100482.50;2045948;28;2734991;-76
2023/03/26 01:11:35;;;;;;;;;0.67;0.67;;;;;13.13;58.25;100481.72;2045740;28;2736763;-75
2023/03/26 01:12:48;;;;;;;;;1.00;1.00;;;;;13.12;58.40;100484.41;2032913;28;2727353;-75
2023/03/26 01:14:07;;;;;;;;;1.00;1.00;;;;;13.11;58.71;100477.44;2045138;28;2727361;-75
2023/03/26 01:15:20;;;;;;;;;2.00;1.00;;;;;13.11;58.90;100482.72;2046318;28;2729429;-75
2023/03/26 01:16:44;;;;;;;;;0.33;0.00;;;;;13.11;59.16;100473.00;2045847;28;2725683;-75
2023/03/26 01:17:58;;;;;;;;;1.67;0.17;;;;;13.11;59.08;100474.81;2054026;28;2731523;-75
2023/03/26 01:19:21;;;;;;;;;2.00;1.00;;;;;13.08;59.11;100467.88;2051396;27;2741931;-75
2023/03/26 01:20:45;;;;;;;;;2.00;1.00;;;;;13.08;59.13;100462.59;2051016;28;2733618;-75
2023/03/26 01:21:59;;;;;;;;;1.33;1.00;;;;;13.07;59.13;100460.88;2046035;28;2729463;-75
2023/03/26 01:23:18;;;;;;;;;2.33;2.33;;;;;13.05;59.69;100460.97;2046061;28;2731496;-75
2023/03/26 01:24:31;;;;;;;;;1.33;1.33;;;;;13.05;59.43;100453.06;2022637;28;2735666;-75
2023/03/26 01:25:53;;;;;;;;;2.50;1.00;;;;;13.04;59.68;100456.63;2045071;28;2739856;-75
2023/03/26 01:27:27;;;;;;;;;2.17;0.17;;;;;13.03;59.76;100443.50;2025163;28;2726669;-74
2023/03/26 01:28:41;;;;;;;;;1.83;1.00;;;;;13.02;59.80;100447.06;2047872;28;2733607;-75
2023/03/26 01:30:09;;;;;;;;;2.00;1.67;;;;;13.01;59.77;100440.09;2022611;28;2725271;-76
2023/03/26 01:31:38;;;;;;;;;0.83;0.00;;;;;12.99;59.84;100437.50;2023304;28;2727322;-75
2023/03/26 01:33:20;;;;;;;;;0.33;0.33;;;;;12.98;60.04;100430.53;2046264;28;2727349;-75
2023/03/26 01:35:12;;;;;;;;;0.50;0.17;;;;;12.98;60.32;100429.69;2038501;28;2726308;-75
2023/03/26 01:36:38;;;;;;;;;2.17;1.00;;;;;12.95;60.46;100425.41;2041871;28;2737792;-75
2023/03/26 01:38:29;;;;;;;;;2.17;1.50;;;;;12.93;60.87;100419.34;2045409;28;2735687;-75
2023/03/26 01:39:55;;;;;;;;;0.50;0.50;;;;;12.92;60.80;100417.63;2022898;28;2728383;-75
2023/03/26 01:41:35;;;;;;;;;3.00;1.33;;;;;12.92;60.70;100407.06;2036327;28;2737766;-75
2023/03/26 01:43:01;;;;;;;;;0.50;0.50;;;;;12.90;61.08;100399.25;2037573;28;2728387;-75
2023/03/26 01:44:41;;;;;;;;;2.33;1.50;;;;;12.89;61.08;100383.50;2039006;28;2720066;-75
2023/03/26 01:45:58;;;;;;;;;1.17;1.17;;;;;12.87;60.98;100380.06;2044648;28;2750280;-76
2023/03/26 01:47:12;;;;;;;;;4.17;2.00;;;;;12.87;61.39;100380.94;2044447;28;2752332;-75
2023/03/26 01:48:32;;;;;;;;;4.83;3.67;;;;;12.87;60.83;100369.50;2022100;28;2739887;-75
2023/03/26 01:49:45;;;;;;;;;1.17;0.67;;;;;12.87;61.29;100364.25;2022358;28;2734655;-75
2023/03/26 01:50:59;;;;;;;;;0.50;0.50;;;;;12.86;61.07;100358.13;2022245;28;2728391;-75
2023/03/26 01:52:18;;;;;;;;;0.00;0.00;;;;;12.86;61.39;100347.59;2046071;28;2721099;-75
2023/03/26 01:53:34;;;;;;;;;1.50;1.50;;;;;12.88;61.49;100336.94;2045077;28;2732588;-75
2023/03/26 01:54:47;;;;;;;;;1.00;1.00;;;;;12.86;61.45;100331.75;2022081;28;2734684;-75
2023/03/26 01:56:11;;;;;;;;;0.33;0.33;;;;;12.86;61.51;100330.91;2045832;28;2724222;-75
2023/03/26 01:57:36;;;;;;;;;1.33;1.33;;;;;12.85;61.39;100329.19;2046510;28;2731287;-75
2023/03/26 01:59:19;;;;;;;;;1.83;1.83;;;;;12.83;61.88;100324.00;2045468;28;2735678;-75
2023/03/26 02:00:38;;;;;;;;;2.67;1.33;;;;;12.83;61.67;100326.63;2021728;28;2736708;-75
2023/03/26 02:02:08;;;;;;;;;3.50;0.83;;;;;12.82;61.93;100322.28;2046058;28;2726693;-75
2023/03/26 02:03:32;;;;;;;;;2.83;1.00;;;;;12.81;61.82;100313.53;2045893;28;2730485;-75
2023/03/26 02:05:03;;;;;;;;;2.00;2.00;;;;;12.81;61.84;100312.66;2042513;28;2754435;-75
2023/03/26 02:06:36;;;;;;;;;2.50;2.50;;;;;12.81;62.04;100302.13;2021386;28;2749227;-75
2023/03/26 02:08:22;;;;;;;;;1.67;1.67;;;;;12.80;61.82;100285.44;2033223;27;2748189;-75
2023/03/26 02:09:46;;;;;;;;;3.83;1.83;;;;;12.80;62.11;100288.06;2039928;28;2745159;-75
2023/03/26 02:11:03;;;;;;;;;3.50;1.50;;;;;12.78;62.22;100284.66;2029724;28;2742977;-75
2023/03/26 02:12:20;;;;;;;;;0.83;0.33;;;;;12.78;62.33;100276.75;2045505;28;2735698;-75
2023/03/26 02:13:33;;;;;;;;;1.67;0.83;;;;;12.76;62.13;100260.16;2045712;28;2726295;-75
2023/03/26 02:14:46;;;;;;;;;2.83;1.17;;;;;12.77;62.20;100264.47;2044260;28;2741437;-75
2023/03/26 02:16:02;;;;;;;;;2.00;1.00;;;;;12.76;62.34;100260.16;2045023;28;2726328;-76
2023/03/26 02:17:15;;;;;;;;;1.67;1.50;;;;;12.76;62.32;100252.25;2046232;28;2721103;-75
2023/03/26 02:18:38;;;;;;;;;0.00;0.00;;;;;12.77;62.25;100253.06;2024044;28;2704453;-76
2023/03/26 02:19:51;;;;;;;;;2.33;1.50;;;;;12.75;62.36;100258.44;2044783;28;2744073;-75
2023/03/26 02:21:20;;;;;;;;;2.83;1.33;;;;;12.76;62.57;100244.34;2044053;28;2731513;-75
2023/03/26 02:22:39;;;;;;;;;2.50;1.00;;;;;12.74;62.84;100235.63;2045633;28;2733591;-75
2023/03/26 02:24:01;;;;;;;;;0.67;0.67;;;;;12.74;62.88;100232.97;2045556;28;2727372;-75
2023/03/26 02:25:17;;;;;;;;;1.17;1.00;;;;;12.73;62.62;100239.22;2044806;28;2724716;-75
2023/03/26 02:26:33;;;;;;;;;3.50;1.83;;;;;12.72;62.58;100232.22;2050381;28;2749242;-75
2023/03/26 02:27:49;;;;;;;;;1.00;1.00;;;;;12.71;62.72;100230.53;2046964;27;2742296;-75
2023/03/26 02:29:02;;;;;;;;;0.50;0.00;;;;;12.69;62.63;100217.41;2045671;28;2724696;-75
2023/03/26 02:30:19;;;;;;;;;0.67;0.67;;;;;12.68;62.91;100206.94;2046047;28;2724732;-75
2023/03/26 02:31:32;;;;;;;;;1.33;0.67;;;;;12.67;62.83;100195.53;2044937;28;2737798;-75
2023/03/26 02:32:45;;;;;;;;;3.00;1.83;;;;;12.67;62.73;100194.69;2044822;28;2735694;-75
2023/03/26 02:33:59;;;;;;;;;1.50;1.00;;;;;12.67;62.80;100192.03;2021305;28;2732601;-76
2023/03/26 02:35:12;;;;;;;;;0.83;0.50;;;;;12.68;63.30;100191.13;2045936;28;2731539;-75
2023/03/26 02:36:26;;;;;;;;;2.17;1.17;;;;;12.67;62.65;100185.00;2019709;27;2733607;-75
2023/03/26 02:37:40;;;;;;;;;2.00;1.00;;;;;12.67;62.92;100178.84;2029898;28;2726288;-75
2023/03/26 02:38:56;;;;;;;;;2.00;1.33;;;;;12.66;62.89;100166.63;2043773;28;2738839;-75
2023/03/26 02:40:10;;;;;;;;;2.67;1.00;;;;;12.66;63.09;100170.13;2044069;28;2731528;-75
2023/03/26 02:41:23;;;;;;;;;3.00;1.00;;;;;12.66;63.11;100158.72;2021492;28;2732564;-75
2023/03/26 02:42:37;;;;;;;;;2.00;1.00;;;;;12.67;62.88;100171.81;2045537;28;2717989;-76
2023/03/26 02:43:51;;;;;;;;;2.33;1.17;;;;;12.65;63.03;100152.56;2044802;28;2729441;-75
2023/03/26 02:45:05;;;;;;;;;2.67;2.67;;;;;12.65;63.27;100157.84;2020134;28;2754420;-76
2023/03/26 02:46:18;;;;;;;;;4.33;1.83;;;;;12.64;63.03;100145.63;2021983;28;2736744;-75
2023/03/26 02:47:32;;;;;;;;;1.00;1.00;;;;;12.64;63.13;100142.13;2022495;28;2721108;-75
2023/03/26 02:48:45;;;;;;;;;1.50;1.00;;;;;12.63;63.13;100137.78;2045048;28;2726435;-75
2023/03/26 02:49:58;;;;;;;;;3.67;1.00;;;;;12.62;63.33;100144.81;2043951;28;2737793;-75
2023/03/26 02:51:12;;;;;;;;;1.17;1.00;;;;;12.61;63.20;100143.13;2044167;28;2735682;-75
2023/03/26 02:52:25;;;;;;;;;2.83;1.00;;;;;12.60;63.04;100136.13;2045891;28;2716250;-75
2023/03/26 02:53:40;;;;;;;;;2.50;1.83;;;;;12.59;62.92;100145.81;2020024;28;2741975;-75
2023/03/26 02:54:53;;;;;;;;;1.67;1.67;;;;;12.57;63.37;100131.88;2020129;28;2743995;-76
2023/03/26 02:56:06;;;;;;;;;1.83;1.83;;;;;12.56;63.60;100137.25;2059348;27;2754432;-75
2023/03/26 02:57:20;;;;;;;;;1.50;1.00;;;;;12.53;63.13;100130.34;2034845;27;2741912;-75
2023/03/26 02:58:33;;;;;;;;;1.50;1.00;;;;;12.52;63.52;100123.34;2021669;28;2735685;-75
2023/03/26 02:59:49;;;;;;;;;1.50;0.83;;;;;12.52;63.52;100123.34;2045254;28;2726308;-75
2023/03/26 03:01:02;;;;;;;;;2.67;1.00;;;;;12.51;63.67;100123.44;2044802;28;2726311;-75
2023/03/26 03:02:17;;;;;;;;;2.50;2.00;;;;;12.51;63.47;100112.91;2043813;28;2739829;-75
2023/03/26 03:03:30;;;;;;;;;1.33;1.33;;;;;12.49;64.20;100120.91;2020750;28;2736735;-75
2023/03/26 03:04:43;;;;;;;;;2.00;1.50;;;;;12.47;64.25;100120.94;2052735;28;2738802;-76
2023/03/26 03:05:56;;;;;;;;;3.00;1.67;;;;;12.45;64.10;100114.06;2026930;28;2750277;-75
2023/03/26 03:07:07;;;;;;;;;3.33;2.00;;;;;12.42;63.75;100106.31;2018411;28;2753384;-76
2023/03/26 03:08:21;;;;;;;;;2.75;1.25;;;;;12.40;63.96;100111.66;2043315;28;2737762;-76
2023/03/26 03:09:34;;;;;;;;;3.50;1.17;;;;;12.38;63.95;100106.47;2053522;28;2717397;-75
2023/03/26 03:11:10;;;;;;;;;1.83;1.00;;;;;12.38;64.34;100089.78;2026200;27;2730490;-76
2023/03/26 03:12:23;;;;;;;;;7.33;2.00;;;;;12.37;64.07;100088.13;2044366;28;2752399;-76
2023/03/26 03:13:36;;;;;;;;;2.00;0.00;;;;;12.37;64.25;100088.13;2022825;28;2721107;-75
2023/03/26 03:14:49;;;;;;;;;1.17;1.00;;;;;12.37;64.39;100088.94;2045091;28;2732570;-76
2023/03/26 03:16:03;;;;;;;;;2.83;2.33;;;;;12.37;64.23;100080.22;2043495;28;2742439;-76
2023/03/26 03:17:18;;;;;;;;;2.33;1.67;;;;;12.36;64.33;100075.84;2044932;28;2731532;-75
2023/03/26 03:18:32;;;;;;;;;2.50;2.17;;;;;12.35;64.83;100084.69;2019717;28;2753387;-75
2023/03/26 03:19:45;;;;;;;;;3.17;2.00;;;;;12.33;64.27;100084.75;2036015;28;2748183;-75
2023/03/26 03:20:58;;;;;;;;;0.00;0.00;;;;;12.34;64.43;100083.84;2021580;28;2723201;-75
2023/03/26 03:22:11;;;;;;;;;2.17;2.00;;;;;12.36;64.41;100086.41;2044164;28;2750269;-75
2023/03/26 03:23:25;;;;;;;;;1.50;1.17;;;;;12.38;64.49;100095.06;2022023;28;2722145;-76
2023/03/26 03:24:38;;;;;;;;;1.50;1.00;;;;;12.38;64.68;100084.53;2044562;28;2732572;-75
2023/03/26 03:25:52;;;;;;;;;2.17;1.00;;;;;12.39;64.38;100088.88;2046864;28;2725266;-75
2023/03/26 03:27:05;;;;;;;;;1.83;1.00;;;;;12.40;64.30;100085.31;2053337;27;2728383;-75
2023/03/26 03:28:18;;;;;;;;;2.83;1.00;;;;;12.41;64.57;100071.19;2046587;27;2730477;-75
2023/03/26 03:29:32;;;;;;;;;2.50;1.67;;;;;12.43;64.38;100081.66;2044829;28;2732636;-75
2023/03/26 03:30:45;;;;;;;;;0.00;0.00;;;;;12.45;64.33;100075.38;2022423;28;2722133;-75
2023/03/26 03:31:59;;;;;;;;;1.83;1.83;;;;;12.46;64.44;100077.09;2045393;28;2735694;-75
2023/03/26 03:33:13;;;;;;;;;3.67;0.33;;;;;12.47;64.22;100073.50;2043812;28;2737762;-75
2023/03/26 03:34:26;;;;;;;;;0.67;0.67;;;;;12.49;63.92;100076.09;2014804;28;2728378;-75
2023/03/26 03:35:40;;;;;;;;;1.83;0.50;;;;;12.48;63.77;100080.50;2021395;28;2731556;-75
2023/03/26 03:36:53;;;;;;;;;1.83;1.67;;;;;12.48;64.00;100063.81;2045279;28;2724228;-76
2023/03/26 03:38:06;;;;;;;;;1.67;1.00;;;;;12.49;64.25;100073.44;2045251;28;2724264;-75
2023/03/26 03:39:19;;;;;;;;;1.67;1.67;;;;;12.50;63.94;100069.88;2045023;28;2730526;-75
2023/03/26 03:40:33;;;;;;;;;1.83;1.00;;;;;12.51;64.00;100068.09;2022658;28;2726334;-75
2023/03/26 03:41:46;;;;;;;;;2.17;1.00;;;;;12.51;63.99;100068.09;2044199;28;2734637;-75
2023/03/26 03:42:59;;;;;;;;;1.00;1.00;;;;;12.53;63.90;100076.75;2021136;28;2727366;-75
2023/03/26 03:44:12;;;;;;;;;0.83;0.83;;;;;12.53;63.45;100077.63;2044491;28;2731572;-75
2023/03/26 03:45:25;;;;;;;;;1.83;1.83;;;;;12.53;63.71;100082.03;2045126;28;2734644;-76
2023/03/26 03:46:39;;;;;;;;;2.00;1.00;;;;;12.51;63.82;100084.75;2021602;28;2733602;-75
2023/03/26 03:47:52;;;;;;;;;0.50;0.50;;;;;12.51;63.63;100079.47;2021417;28;2723179;-75
2023/03/26 03:49:06;;;;;;;;;0.33;0.33;;;;;12.52;63.34;100080.34;2045242;28;2725261;-75
2023/03/26 03:50:19;;;;;;;;;1.00;1.00;;;;;12.51;63.13;100076.00;2044322;28;2742986;-75
2023/03/26 03:51:34;;;;;;;;;0.00;0.00;;;;;12.49;63.52;100074.28;2020926;28;2725262;-75
2023/03/26 03:52:47;;;;;;;;;0.00;0.00;;;;;12.51;63.49;100076.84;2044705;28;2724243;-76
2023/03/26 03:54:00;;;;;;;;;0.50;0.50;;;;;12.52;63.25;100080.34;2043850;28;2733709;-75
2023/03/26 03:55:14;;;;;;;;;0.50;0.50;;;;;12.52;62.83;100086.44;2044429;28;2728379;-75
2023/03/26 03:56:27;;;;;;;;;1.50;1.00;;;;;12.53;62.62;100077.63;2045041;28;2733607;-75
2023/03/26 03:57:41;;;;;;;;;1.00;0.00;;;;;12.52;62.59;100046.09;2022371;28;2727352;-75
2023/03/26 03:58:54;;;;;;;;;2.17;1.00;;;;;12.53;63.05;100082.88;2043735;28;2741923;-75
2023/03/26 04:00:10;;;;;;;;;0.00;0.00;;;;;12.51;62.12;100079.47;2022689;28;2733607;-75
2023/03/26 04:01:23;;;;;;;;;2.17;1.00;;;;;12.50;62.18;100088.31;2045784;28;2740325;-75
2023/03/26 04:02:37;;;;;;;;;1.33;0.00;;;;;12.49;62.36;100089.25;2022988;28;2731592;-75
2023/03/26 04:03:51;;;;;;;;;0.67;0.00;;;;;12.46;62.21;100087.63;2023538;28;2734703;-75
2023/03/26 04:05:05;;;;;;;;;0.67;0.67;;;;;12.47;62.50;100107.78;2022953;28;2724224;-75
2023/03/26 04:06:18;;;;;;;;;0.17;0.00;;;;;12.46;62.08;100084.13;2039027;28;2727389;-76
2023/03/26 04:07:31;;;;;;;;;0.00;0.00;;;;;12.45;62.33;100074.50;2045603;28;2731526;-75
2023/03/26 04:08:45;;;;;;;;;0.83;0.00;;;;;12.45;61.72;100069.25;2045620;28;2741947;-75
2023/03/26 04:10:00;;;;;;;;;1.67;0.00;;;;;12.44;61.67;100078.97;2045555;28;2733614;-75
2023/03/26 04:11:14;;;;;;;;;0.17;0.17;;;;;12.44;62.30;100072.81;2023890;28;2725294;-76
2023/03/26 04:12:28;;;;;;;;;1.33;0.00;;;;;12.44;61.57;100083.38;2023112;28;2727371;-76
2023/03/26 04:13:41;;;;;;;;;2.33;0.17;;;;;12.43;61.17;100081.66;2045944;28;2735681;-76
2023/03/26 04:14:55;;;;;;;;;0.00;0.00;;;;;12.40;61.19;100077.41;2021677;28;2731505;-76
2023/03/26 04:16:09;;;;;;;;;1.50;0.00;;;;;12.40;61.62;100079.16;2046300;28;2729437;-75
2023/03/26 04:17:22;;;;;;;;;0.33;0.00;;;;;12.40;61.63;100076.53;2046168;28;2725293;-76
2023/03/26 04:18:36;;;;;;;;;0.00;0.00;;;;;12.39;62.19;100080.97;2046928;28;2729413;-76
2023/03/26 04:19:53;;;;;;;;;3.00;0.00;;;;;12.40;61.93;100071.25;2022113;28;2734644;-75
2023/03/26 04:21:07;;;;;;;;;2.00;0.00;;;;;12.41;62.19;100080.88;2046337;28;2725266;-75
2023/03/26 04:22:20;;;;;;;;;0.83;0.00;;;;;12.42;61.92;100086.06;2022604;28;2724666;-76
2023/03/26 04:23:34;;;;;;;;;1.00;0.00;;;;;12.41;61.37;100076.47;2046272;28;2735701;-75
2023/03/26 04:24:48;;;;;;;;;1.00;0.00;;;;;12.40;61.64;100082.66;2045745;28;2731533;-76
2023/03/26 04:26:05;;;;;;;;;0.00;0.00;;;;;12.41;61.82;100079.09;2022874;28;2725739;-75
2023/03/26 04:27:26;;;;;;;;;0.83;0.00;;;;;12.42;61.69;100080.78;2045961;28;2723183;-75
2023/03/26 04:28:49;;;;;;;;;1.00;0.00;;;;;12.43;62.02;100081.66;2038110;28;2731527;-75
2023/03/26 04:30:05;;;;;;;;;2.67;0.00;;;;;12.43;61.83;100079.03;2020826;28;2732011;-75
2023/03/26 04:31:22;;;;;;;;;0.50;0.00;;;;;12.44;61.34;100075.47;2046592;28;2733604;-75
2023/03/26 04:32:37;;;;;;;;;1.00;0.00;;;;;12.43;61.28;100079.03;2023367;28;2724299;-75
2023/03/26 04:33:54;;;;;;;;;0.00;0.00;;;;;12.44;61.16;100083.38;2047192;28;2720093;-75
2023/03/26 04:35:12;;;;;;;;;0.00;0.00;;;;;12.40;61.04;100085.31;2022189;28;2737773;-75
2023/03/26 04:36:28;;;;;;;;;0.67;0.00;;;;;12.40;61.23;100097.63;2022831;28;2724220;-75
2023/03/26 04:37:44;;;;;;;;;0.00;0.00;;;;;12.40;61.17;100089.72;2046764;28;2724220;-75
2023/03/26 04:39:02;;;;;;;;;1.83;0.00;;;;;12.37;60.75;100078.41;2045187;28;2726307;-75
2023/03/26 04:40:20;;;;;;;;;0.00;0.00;;;;;12.36;60.92;100078.50;2046930;28;2716933;-75
2023/03/26 04:41:34;;;;;;;;;1.00;0.00;;;;;12.35;60.88;100075.00;2046826;28;2725309;-76
2023/03/26 04:42:47;;;;;;;;;0.67;0.00;;;;;12.35;60.77;100090.81;2046661;28;2725290;-75
2023/03/26 04:44:01;;;;;;;;;2.67;0.00;;;;;12.35;61.08;100105.75;2046320;28;2733615;-75
2023/03/26 04:45:21;;;;;;;;;0.00;0.00;;;;;12.35;60.97;100079.41;2044600;28;2726305;-75
2023/03/26 04:46:34;;;;;;;;;0.00;0.00;;;;;12.34;60.67;100089.13;2046379;28;2725255;-75
2023/03/26 04:47:49;;;;;;;;;0.83;0.00;;;;;12.33;60.90;100086.53;2047012;28;2722137;-75
2023/03/26 04:49:02;;;;;;;;;0.00;0.00;;;;;12.32;60.68;100085.69;2046099;28;2725250;-75
2023/03/26 04:50:15;;;;;;;;;1.00;0.17;;;;;12.31;60.59;100094.53;2015560;28;2724236;-75
2023/03/26 04:51:37;;;;;;;;;0.00;0.00;;;;;12.31;60.53;100094.53;2038790;28;2729504;-75
2023/03/26 04:52:53;;;;;;;;;0.00;0.00;;;;;12.31;60.35;100099.81;2045457;28;2727433;-75
2023/03/26 04:54:07;;;;;;;;;0.00;0.00;;;;;12.32;60.63;100106.75;2046994;28;2718336;-75
2023/03/26 04:55:31;;;;;;;;;1.00;0.00;;;;;12.32;60.63;100112.03;2045659;28;2742447;-75
2023/03/26 04:56:48;;;;;;;;;0.00;0.00;;;;;12.33;60.03;100102.34;2046905;28;2725325;-75
2023/03/26 04:58:04;;;;;;;;;0.00;0.00;;;;;12.30;59.91;100099.91;2046694;28;2723189;-75
2023/03/26 04:59:24;;;;;;;;;0.00;0.00;;;;;12.29;59.99;100100.81;2047817;28;2706597;-75
2023/03/26 05:00:38;;;;;;;;;1.50;0.00;;;;;12.25;59.61;100106.22;2046541;28;2725266;-75
2023/03/26 05:01:52;;;;;;;;;0.00;0.00;;;;;12.23;60.12;100101.97;2046704;28;2722169;-75
2023/03/26 05:03:09;;;;;;;;;0.00;0.00;;;;;12.23;60.13;100101.97;2037614;28;2731511;-76
2023/03/26 05:04:23;;;;;;;;;1.67;0.00;;;;;12.22;60.04;100097.66;2044077;28;2725597;-75
2023/03/26 05:05:37;;;;;;;;;0.33;0.00;;;;;12.21;60.02;100111.72;2046150;28;2731574;-75
2023/03/26 05:06:50;;;;;;;;;1.17;0.17;;;;;12.19;59.55;100108.31;2046823;28;2739849;-75
2023/03/26 05:08:04;;;;;;;;;0.00;0.00;;;;;12.17;59.92;100115.47;2023357;28;2725266;-75
2023/03/26 05:09:18;;;;;;;;;1.00;0.00;;;;;12.14;59.81;100104.16;2047286;28;2696096;-76
2023/03/26 05:10:31;;;;;;;;;0.00;0.00;;;;;12.15;59.77;100120.78;2045621;28;2725315;-75
2023/03/26 05:11:45;;;;;;;;;0.00;0.00;;;;;12.14;59.51;100127.84;2046121;28;2727348;-76
2023/03/26 05:12:58;;;;;;;;;1.00;0.00;;;;;12.13;59.64;100120.88;2044993;28;2736744;-75
2023/03/26 05:14:11;;;;;;;;;0.50;0.00;;;;;12.12;59.66;100127.03;2046563;28;2719036;-75
2023/03/26 05:15:24;;;;;;;;;1.00;0.00;;;;;12.11;59.49;100117.44;2045481;28;2716944;-75
2023/03/26 05:16:38;;;;;;;;;0.00;0.00;;;;;12.10;60.09;100120.97;2046211;28;2729916;-75
2023/03/26 05:17:51;;;;;;;;;0.67;0.00;;;;;12.09;59.75;100129.84;2053918;27;2725292;-75
2023/03/26 05:19:04;;;;;;;;;0.00;0.00;;;;;12.09;59.15;100129.84;2050879;27;2723188;-75
2023/03/26 05:20:19;;;;;;;;;0.83;0.00;;;;;12.09;59.60;100143.00;2045058;28;2726380;-75
2023/03/26 05:21:33;;;;;;;;;0.00;0.00;;;;;12.10;59.77;100128.06;2045575;28;2712751;-76
2023/03/26 05:22:48;;;;;;;;;0.33;0.00;;;;;12.09;59.36;100128.97;2045765;28;2729436;-75
2023/03/26 05:24:02;;;;;;;;;1.17;0.00;;;;;12.07;59.38;100142.22;2046740;28;2727325;-75
2023/03/26 05:25:16;;;;;;;;;0.67;0.00;;;;;12.07;59.22;100141.38;2046670;28;2723206;-75
2023/03/26 05:26:30;;;;;;;;;0.00;0.00;;;;;12.09;59.70;100142.16;2046361;28;2727337;-75
2023/03/26 05:27:44;;;;;;;;;0.00;0.00;;;;;12.07;59.51;100139.59;2048083;28;2704474;-76
2023/03/26 05:28:57;;;;;;;;;0.00;0.00;;;;;12.04;59.31;100140.59;2045533;28;2727341;-75
2023/03/26 05:30:17;;;;;;;;;2.83;0.00;;;;;12.04;59.09;100145.00;2045013;28;2733618;-75
2023/03/26 05:31:30;;;;;;;;;0.00;0.00;;;;;12.03;59.63;100152.06;2046306;28;2720066;-75
2023/03/26 05:32:47;;;;;;;;;0.17;0.17;;;;;12.02;60.16;100146.88;2046180;28;2725262;-75
2023/03/26 05:34:00;;;;;;;;;0.00;0.00;;;;;12.02;59.70;100154.78;2045906;28;2725632;-75
2023/03/26 05:35:17;;;;;;;;;0.00;0.00;;;;;12.02;59.37;100147.72;2046011;28;2725271;-75
2023/03/26 05:36:30;;;;;;;;;0.83;0.33;;;;;12.01;59.29;100145.16;2045400;28;2735681;-75
2023/03/26 05:37:45;;;;;;;;;0.00;0.00;;;;;12.01;59.42;100147.78;2056449;27;2731629;-75
2023/03/26 05:38:58;;;;;;;;;0.00;0.00;;;;;12.02;59.33;100146.88;2056860;27;2725277;-75
2023/03/26 05:40:13;;;;;;;;;0.00;0.00;;;;;12.03;59.79;100152.06;2044685;28;2725369;-75
2023/03/26 05:41:27;;;;;;;;;0.00;0.00;;;;;12.04;59.49;100150.28;2046275;28;2724244;-75
2023/03/26 05:42:40;;;;;;;;;0.50;0.00;;;;;12.05;59.42;100154.59;2045063;28;2710706;-75
2023/03/26 05:43:53;;;;;;;;;0.00;0.00;;;;;12.06;59.54;100152.81;2045320;28;2722476;-75
2023/03/26 05:45:09;;;;;;;;;0.00;0.00;;;;;12.06;59.67;100153.69;2062109;27;2721106;-75
2023/03/26 05:46:22;;;;;;;;;0.00;0.00;;;;;12.05;59.56;100167.78;2059832;27;2710720;-75
2023/03/26 05:47:36;;;;;;;;;0.33;0.00;;;;;12.06;59.23;100158.94;2046956;28;2717422;-75